createdAt,value
2022-10-12T00:01:24.636Z,25.02
2022-10-12T00:03:53.392Z,23.92
2022-10-12T00:06:23.599Z,25.95
2022-10-12T00:08:53.994Z,24.13
2022-10-12T00:11:25.327Z,24.85
2022-10-12T00:13:53.982Z,24.42
2022-10-12T00:16:23.783Z,24.30
2022-10-12T00:18:53.265Z,24.55
2022-10-12T00:21:22.153Z,24.93
2022-10-12T00:23:51.126Z,24.50
2022-10-12T00:26:21.601Z,24.67
2022-10-12T00:28:56.117Z,25.73
2022-10-12T00:31:24.889Z,24.38
2022-10-12T00:33:54.296Z,24.20
2022-10-12T00:36:24.942Z,26.95
2022-10-12T00:38:55.656Z,26.10
2022-10-12T00:41:27.169Z,25.67
2022-10-12T00:43:58.467Z,26.10
2022-10-12T00:46:31.250Z,25.58
2022-10-12T00:49:04.590Z,23.95
2022-10-12T00:51:33.351Z,25.35
2022-10-12T00:54:04.888Z,27.60
2022-10-12T00:56:35.084Z,25.40
2022-10-12T00:59:09.614Z,26.77
2022-10-12T01:01:38.083Z,27.02
2022-10-12T01:04:07.293Z,30.50
2022-10-12T01:06:36.047Z,30.02
2022-10-12T01:09:05.228Z,28.80
2022-10-12T01:11:33.805Z,29.15
2022-10-12T01:14:02.652Z,25.83
2022-10-12T01:16:37.920Z,27.17
2022-10-12T01:19:16.957Z,25.35
2022-10-12T01:21:47.626Z,25.30
2022-10-12T01:24:47.385Z,25.15
2022-10-12T01:27:37.608Z,24.98
2022-10-12T01:32:56.031Z,29.63
2022-10-12T01:35:27.948Z,25.65
2022-10-12T01:38:04.443Z,23.25
2022-10-12T01:40:38.833Z,22.35
2022-10-12T01:43:08.654Z,24.05
2022-10-12T01:45:38.674Z,22.53
2022-10-12T01:48:07.665Z,21.05
2022-10-12T01:50:44.214Z,21.25
2022-10-12T01:53:18.286Z,21.77
2022-10-12T01:55:51.535Z,21.27
2022-10-12T01:58:30.304Z,21.50
2022-10-12T02:01:07.734Z,22.85
2022-10-12T02:03:43.089Z,22.80
2022-10-12T02:06:14.138Z,21.92
2022-10-12T02:08:47.919Z,22.48
2022-10-12T02:11:18.692Z,21.63
2022-10-12T02:13:49.572Z,24.02
2022-10-12T02:16:22.064Z,22.20
2022-10-12T02:18:52.721Z,22.70
2022-10-12T02:21:23.520Z,22.20
2022-10-12T02:23:54.186Z,22.02
2022-10-12T02:26:23.436Z,22.88
2022-10-12T02:28:52.022Z,22.40
2022-10-12T02:31:28.548Z,23.33
2022-10-12T02:34:02.270Z,22.27
2022-10-12T02:36:37.309Z,21.75
2022-10-12T02:39:10.057Z,21.80
2022-10-12T02:41:42.255Z,23.40
2022-10-12T02:44:13.969Z,21.95
2022-10-12T02:46:44.249Z,21.88
2022-10-12T02:49:13.433Z,21.10
2022-10-12T02:51:42.367Z,20.95
2022-10-12T02:54:11.023Z,21.10
2022-10-12T02:56:44.993Z,22.13
2022-10-12T02:59:14.341Z,21.20
2022-10-12T03:01:44.366Z,23.92
2022-10-12T03:06:42.617Z,26.45
2022-10-12T03:09:11.191Z,20.40
2022-10-12T03:11:43.839Z,21.17
2022-10-12T03:14:12.956Z,22.00
2022-10-12T03:16:41.237Z,21.67
2022-10-12T03:19:11.354Z,21.55
2022-10-12T03:21:39.952Z,21.27
2022-10-12T03:24:08.945Z,21.70
2022-10-12T03:26:37.730Z,21.95
2022-10-12T03:29:06.516Z,20.63
2022-10-12T03:31:34.807Z,22.58
2022-10-12T03:34:03.423Z,25.20
2022-10-12T03:36:34.611Z,21.83
2022-10-12T03:39:03.286Z,21.30
2022-10-12T03:41:31.932Z,22.38
2022-10-12T03:44:00.575Z,21.60
2022-10-12T03:46:28.864Z,22.92
2022-10-12T03:48:57.484Z,21.63
2022-10-12T03:51:26.361Z,23.08
2022-10-12T03:53:56.425Z,21.67
2022-10-12T03:56:24.982Z,23.45
2022-10-12T03:58:53.228Z,23.70
2022-10-12T04:01:22.005Z,23.10
2022-10-12T04:03:50.790Z,22.95
2022-10-12T04:06:19.417Z,24.83
2022-10-12T04:08:51.028Z,22.55
2022-10-12T04:11:21.559Z,22.98
2022-10-12T04:13:49.967Z,22.10
2022-10-12T04:16:18.637Z,21.95
2022-10-12T04:18:47.622Z,22.45
2022-10-12T04:21:17.594Z,23.15
2022-10-12T04:23:46.342Z,24.25
2022-10-12T04:26:15.066Z,22.67
2022-10-12T04:28:44.831Z,22.48
2022-10-12T04:31:13.506Z,23.38
2022-10-12T04:33:42.163Z,22.90
2022-10-12T04:36:11.039Z,24.63
2022-10-12T04:38:39.704Z,25.80
2022-10-12T04:41:08.305Z,25.58
2022-10-12T04:43:36.583Z,25.58
2022-10-12T04:46:06.768Z,25.52
2022-10-12T04:48:35.477Z,24.58
2022-10-12T04:51:04.196Z,26.10
2022-10-12T04:53:33.155Z,25.25
2022-10-12T04:56:03.702Z,26.98
2022-10-12T05:01:00.648Z,26.38
2022-10-12T05:03:30.635Z,24.77
2022-10-12T05:05:59.301Z,27.27
2022-10-12T05:08:27.938Z,25.20
2022-10-12T05:10:58.491Z,28.35
2022-10-12T05:13:27.417Z,27.10
2022-10-12T05:15:56.291Z,31.40
2022-10-12T05:18:25.241Z,30.15
2022-10-12T05:20:57.140Z,30.25
2022-10-12T05:23:26.017Z,27.38
2022-10-12T05:25:55.845Z,27.65
2022-10-12T05:28:26.054Z,28.13
2022-10-12T05:30:54.999Z,27.53
2022-10-12T05:33:23.657Z,25.30
2022-10-12T05:35:56.343Z,26.10
2022-10-12T05:38:26.814Z,26.75
2022-10-12T05:41:00.066Z,24.55
2022-10-12T05:43:29.879Z,26.55
2022-10-12T05:45:58.802Z,22.95
2022-10-12T05:48:27.697Z,23.77
2022-10-12T05:50:56.485Z,24.45
2022-10-12T05:53:26.609Z,24.55
2022-10-12T05:55:55.872Z,23.92
2022-10-12T05:58:25.201Z,23.43
2022-10-12T06:00:54.210Z,23.60
2022-10-12T06:03:26.201Z,23.80
2022-10-12T06:05:55.168Z,25.10
2022-10-12T06:08:23.851Z,25.40
2022-10-12T06:10:54.083Z,24.75
2022-10-12T06:13:22.837Z,24.38
2022-10-12T06:15:51.671Z,23.40
2022-10-12T06:18:20.466Z,22.02
2022-10-12T06:20:49.821Z,21.05
2022-10-12T06:23:18.863Z,20.88
2022-10-12T06:25:48.263Z,18.98
2022-10-12T06:28:19.485Z,18.48
2022-10-12T06:30:48.619Z,16.92
2022-10-12T06:33:17.210Z,17.90
2022-10-12T06:35:45.891Z,17.25
2022-10-12T06:38:14.481Z,17.58
2022-10-12T06:40:43.059Z,17.17
2022-10-12T06:43:11.692Z,18.90
2022-10-12T06:45:41.710Z,17.52
2022-10-12T06:48:12.845Z,17.08
2022-10-12T06:50:43.625Z,18.77
2022-10-12T06:53:12.311Z,18.75
2022-10-12T06:55:41.312Z,17.85
2022-10-12T06:58:10.016Z,18.90
2022-10-12T07:00:39.040Z,17.13
2022-10-12T07:03:11.155Z,17.35
2022-10-12T07:05:39.775Z,17.75
2022-10-12T07:08:08.447Z,15.63
2022-10-12T07:10:36.729Z,18.33
2022-10-12T07:13:05.368Z,16.13
2022-10-12T07:15:34.014Z,16.63
2022-10-12T07:18:02.615Z,15.88
2022-10-12T07:20:32.663Z,16.33
2022-10-12T07:23:01.277Z,16.17
2022-10-12T07:25:29.617Z,15.23
2022-10-12T07:27:58.287Z,16.17
2022-10-12T07:30:27.001Z,15.32
2022-10-12T07:32:55.886Z,16.92
2022-10-12T07:35:26.309Z,14.95
2022-10-12T07:37:56.138Z,14.68
2022-10-12T07:40:26.374Z,16.35
2022-10-12T07:43:16.505Z,14.63
2022-10-12T07:45:44.414Z,16.92
2022-10-12T07:48:13.348Z,14.77
2022-10-12T07:50:41.998Z,14.60
2022-10-12T07:53:12.021Z,14.52
2022-10-12T07:55:40.348Z,12.52
2022-10-12T07:58:09.041Z,15.20
2022-10-12T08:00:37.755Z,16.25
2022-10-12T08:03:06.549Z,16.65
2022-10-12T08:05:38.200Z,14.98
2022-10-12T08:08:08.886Z,13.35
2022-10-12T08:10:38.900Z,12.85
2022-10-12T08:13:07.478Z,14.18
2022-10-12T08:15:36.083Z,12.13
2022-10-12T08:18:04.905Z,10.48
2022-10-12T08:20:33.584Z,11.30
2022-10-12T08:23:02.173Z,11.63
2022-10-12T08:25:30.599Z,10.73
2022-10-12T08:28:01.250Z,11.95
2022-10-12T08:30:29.898Z,10.57
2022-10-12T08:32:58.585Z,9.93
2022-10-12T08:35:27.387Z,8.70
2022-10-12T08:37:55.939Z,9.73
2022-10-12T08:40:32.048Z,8.02
2022-10-12T08:43:07.725Z,7.38
2022-10-12T08:45:39.849Z,7.28
2022-10-12T08:48:12.910Z,6.50
2022-10-12T08:50:45.517Z,6.55
2022-10-12T08:53:17.495Z,6.38
2022-10-12T08:55:46.823Z,6.18
2022-10-12T08:58:20.784Z,6.43
2022-10-12T09:00:51.993Z,6.38
2022-10-12T09:03:33.747Z,6.20
2022-10-12T09:06:09.852Z,6.72
2022-10-12T09:08:48.878Z,6.22
2022-10-12T09:11:38.866Z,6.65
2022-10-12T09:16:41.435Z,5.80
2022-10-12T09:19:14.811Z,6.43
2022-10-12T09:21:43.872Z,5.72
2022-10-12T09:24:16.463Z,7.25
2022-10-12T09:26:46.505Z,6.78
2022-10-12T09:29:24.281Z,5.72
2022-10-12T09:32:12.055Z,6.57
2022-10-12T09:34:41.294Z,5.55
2022-10-12T09:37:14.181Z,5.90
2022-10-12T09:39:43.128Z,5.57
2022-10-12T09:42:12.534Z,6.60
2022-10-12T09:44:46.350Z,4.80
2022-10-12T09:47:27.158Z,5.10
2022-10-12T09:49:58.858Z,4.57
2022-10-12T09:52:30.842Z,4.50
2022-10-12T09:55:03.562Z,5.75
2022-10-12T09:57:35.624Z,3.22
2022-10-12T10:00:08.863Z,4.22
2022-10-12T10:02:50.303Z,4.53
2022-10-12T10:05:26.849Z,5.43
2022-10-12T10:08:16.021Z,4.55
2022-10-12T10:10:49.478Z,4.63
2022-10-12T10:13:18.400Z,4.53
2022-10-12T10:15:50.490Z,5.50
2022-10-12T10:18:24.003Z,4.85
2022-10-12T10:20:55.183Z,4.40
2022-10-12T10:23:27.107Z,5.15
2022-10-12T10:25:57.744Z,4.80
2022-10-12T10:28:29.876Z,4.13
2022-10-12T10:31:02.858Z,5.10
2022-10-12T10:33:33.038Z,5.72
2022-10-12T10:36:04.814Z,4.35
2022-10-12T10:38:46.209Z,5.38
2022-10-12T10:41:18.187Z,4.47
2022-10-12T10:43:47.574Z,4.53
2022-10-12T10:51:21.689Z,2.92
2022-10-12T10:53:51.404Z,3.80
2022-10-12T10:58:52.892Z,4.32
2022-10-12T11:01:26.645Z,3.70
2022-10-12T11:03:59.517Z,4.97
2022-10-12T11:06:34.290Z,4.00
2022-10-12T11:09:06.308Z,5.05
2022-10-12T11:11:37.841Z,3.72
2022-10-12T11:14:13.916Z,3.33
2022-10-12T11:16:47.029Z,3.05
2022-10-12T11:19:25.802Z,4.70
2022-10-12T11:21:56.024Z,3.38
2022-10-12T11:24:28.962Z,3.50
2022-10-12T11:26:59.390Z,4.55
2022-10-12T11:29:28.903Z,4.22
2022-10-12T11:32:04.383Z,3.97
2022-10-12T11:34:44.054Z,3.88
2022-10-12T11:37:20.313Z,4.05
2022-10-12T11:39:51.731Z,4.50
2022-10-12T11:42:30.727Z,3.88
2022-10-12T11:45:00.943Z,3.60
2022-10-12T11:47:37.831Z,3.53
2022-10-12T11:50:08.996Z,4.47
2022-10-12T11:52:40.557Z,4.13
2022-10-12T11:55:25.521Z,3.38
2022-10-12T11:57:55.600Z,4.03
2022-10-12T12:00:26.792Z,3.35
2022-10-12T12:03:00.832Z,3.38
2022-10-12T12:05:33.891Z,3.33
2022-10-12T12:08:03.220Z,3.45
2022-10-12T12:11:05.880Z,3.40
2022-10-12T12:13:34.509Z,3.70
2022-10-12T12:16:34.094Z,3.38
2022-10-12T12:19:18.754Z,3.15
2022-10-12T12:22:14.918Z,3.40
2022-10-12T12:24:53.372Z,3.15
2022-10-12T12:27:23.915Z,2.97
2022-10-12T12:29:52.943Z,3.10
2022-10-12T12:32:22.409Z,3.28
2022-10-12T12:35:00.266Z,3.22
2022-10-12T12:37:33.472Z,3.50
2022-10-12T12:40:02.185Z,2.88
2022-10-12T12:42:32.349Z,3.17
2022-10-12T12:47:45.514Z,3.10
2022-10-12T12:50:36.731Z,2.50
2022-10-12T12:53:08.246Z,2.95
2022-10-12T12:55:47.427Z,2.50
2022-10-12T12:58:43.183Z,2.53
2022-10-12T13:01:23.754Z,2.47
2022-10-12T13:04:12.108Z,2.10
2022-10-12T13:07:01.762Z,3.53
2022-10-12T13:09:43.513Z,3.40
2022-10-12T13:12:34.379Z,2.22
2022-10-12T13:15:30.046Z,2.55
2022-10-12T13:18:45.668Z,3.08
2022-10-12T13:21:17.654Z,3.15
2022-10-12T13:23:49.466Z,3.47
2022-10-12T13:26:21.242Z,3.22
2022-10-12T13:28:51.264Z,4.28
2022-10-12T13:31:22.959Z,4.38
2022-10-12T13:33:59.730Z,3.78
2022-10-12T13:36:30.522Z,3.58
2022-10-12T13:39:09.154Z,2.78
2022-10-12T13:41:37.841Z,3.22
2022-10-12T13:44:07.430Z,2.63
2022-10-12T13:46:38.991Z,2.55
2022-10-12T13:49:15.989Z,2.83
2022-10-12T13:51:45.813Z,1.90
2022-10-12T13:54:19.183Z,1.65
2022-10-12T13:56:48.528Z,2.60
2022-10-12T13:59:20.201Z,2.40
2022-10-12T14:01:53.335Z,2.80
2022-10-12T14:04:22.210Z,3.15
2022-10-12T14:06:57.365Z,2.20
2022-10-12T14:09:28.813Z,2.40
2022-10-12T14:11:57.558Z,2.70
2022-10-12T14:14:32.086Z,2.15
2022-10-12T14:17:00.690Z,2.60
2022-10-12T14:19:37.318Z,2.28
2022-10-12T14:22:06.130Z,1.80
2022-10-12T14:24:36.886Z,2.28
2022-10-12T14:27:07.102Z,2.30
2022-10-12T14:29:38.355Z,2.58
2022-10-12T14:32:08.616Z,2.28
2022-10-12T14:34:40.991Z,2.17
2022-10-12T14:37:31.869Z,2.47
2022-10-12T14:40:24.872Z,2.08
2022-10-12T14:42:59.330Z,2.22
2022-10-12T14:45:28.382Z,2.80
2022-10-12T14:47:57.335Z,2.63
2022-10-12T14:50:26.034Z,2.70
2022-10-12T14:52:56.359Z,2.35
2022-10-12T14:55:28.021Z,2.78
2022-10-12T14:57:56.688Z,3.20
2022-10-12T15:00:26.897Z,3.90
2022-10-12T15:02:55.913Z,3.40
2022-10-12T15:05:25.657Z,2.97
2022-10-12T15:07:54.167Z,3.38
2022-10-12T15:10:24.079Z,3.08
2022-10-12T15:12:54.803Z,3.30
2022-10-12T15:15:33.371Z,4.18
2022-10-12T15:18:02.326Z,5.15
2022-10-12T15:20:31.662Z,3.50
2022-10-12T15:23:01.008Z,4.13
2022-10-12T15:25:38.047Z,5.30
2022-10-12T15:28:08.256Z,3.45
2022-10-12T15:30:52.075Z,4.03
2022-10-12T15:33:25.822Z,4.68
2022-10-12T15:35:54.428Z,3.85
2022-10-12T15:38:23.143Z,4.70
2022-10-12T15:40:52.904Z,5.05
2022-10-12T15:43:23.015Z,4.47
2022-10-12T15:45:52.002Z,3.80
2022-10-12T15:48:20.653Z,4.40
2022-10-12T15:50:50.366Z,5.55
2022-10-12T15:53:22.297Z,5.07
2022-10-12T15:55:50.730Z,5.47
2022-10-12T15:58:19.315Z,5.22
2022-10-12T16:00:49.410Z,4.50
2022-10-12T16:03:25.922Z,5.38
2022-10-12T16:05:55.235Z,6.90
2022-10-12T16:08:23.947Z,6.47
2022-10-12T16:10:52.571Z,6.25
2022-10-12T16:13:21.507Z,6.78
2022-10-12T16:15:51.501Z,7.68
2022-10-12T16:18:20.270Z,6.95
2022-10-12T16:20:53.610Z,6.45
2022-10-12T16:23:25.112Z,6.88
2022-10-12T16:25:53.539Z,7.30
2022-10-12T16:28:22.909Z,6.80
2022-10-12T16:30:53.775Z,6.25
2022-10-12T16:33:22.671Z,10.52
2022-10-12T16:35:51.360Z,7.38
2022-10-12T16:38:20.945Z,5.85
2022-10-12T16:40:50.080Z,6.53
2022-10-12T16:43:19.600Z,6.40
2022-10-12T16:45:57.417Z,5.67
2022-10-12T16:48:26.098Z,6.25
2022-10-12T16:50:54.738Z,5.80
2022-10-12T16:53:23.674Z,7.28
2022-10-12T16:55:52.563Z,5.13
2022-10-12T16:58:21.272Z,5.03
2022-10-12T17:00:50.173Z,5.28
2022-10-12T17:03:20.284Z,6.25
2022-10-12T17:05:49.016Z,6.22
2022-10-12T17:08:17.940Z,5.20
2022-10-12T17:10:46.359Z,6.60
2022-10-12T17:13:15.153Z,5.38
2022-10-12T17:15:43.907Z,6.55
2022-10-12T17:18:12.609Z,12.93
2022-10-12T17:20:42.622Z,5.90
2022-10-12T17:23:11.389Z,6.78
2022-10-12T17:25:39.656Z,6.53
2022-10-12T17:28:08.324Z,5.50
2022-10-12T17:30:38.619Z,6.40
2022-10-12T17:33:07.364Z,5.75
2022-10-12T17:35:40.500Z,6.13
2022-10-12T17:38:10.667Z,7.35
2022-10-12T17:40:40.427Z,6.97
2022-10-12T17:43:09.124Z,6.90
2022-10-12T17:45:40.658Z,6.43
2022-10-12T17:48:09.402Z,8.23
2022-10-12T17:53:11.581Z,8.10
2022-10-12T17:55:48.948Z,9.70
2022-10-12T17:58:17.969Z,8.65
2022-10-12T18:00:46.805Z,8.40
2022-10-12T18:03:15.519Z,9.10
2022-10-12T18:05:46.483Z,9.60
2022-10-12T18:08:16.641Z,8.43
2022-10-12T18:10:45.153Z,9.68
2022-10-12T18:13:13.867Z,10.18
2022-10-12T18:15:44.516Z,10.30
2022-10-12T18:20:44.286Z,10.18
2022-10-12T18:23:13.185Z,10.20
2022-10-12T18:25:43.967Z,10.77
2022-10-12T18:28:13.555Z,13.82
2022-10-12T18:30:48.042Z,15.02
2022-10-12T18:33:17.482Z,15.57
2022-10-12T18:35:46.141Z,15.60
2022-10-12T18:38:14.848Z,14.75
2022-10-12T18:40:44.757Z,14.20
2022-10-12T18:43:13.414Z,18.05
2022-10-12T18:45:43.370Z,16.38
2022-10-12T18:48:12.120Z,20.60
2022-10-12T18:50:41.482Z,18.33
2022-10-12T18:53:10.126Z,19.13
2022-10-12T18:55:39.120Z,17.85
2022-10-12T18:58:09.194Z,15.57
2022-10-12T19:00:38.363Z,14.10
2022-10-12T19:03:07.134Z,16.42
2022-10-12T19:05:35.824Z,16.48
2022-10-12T19:08:04.443Z,23.02
2022-10-12T19:10:32.747Z,25.27
2022-10-12T19:13:01.385Z,20.45
2022-10-12T19:15:31.401Z,20.40
2022-10-12T19:18:00.116Z,20.30
2022-10-12T19:20:28.772Z,22.60
2022-10-12T19:22:57.394Z,22.00
2022-10-12T19:25:25.774Z,23.10
2022-10-12T19:27:54.373Z,22.20
2022-10-12T19:30:23.030Z,22.15
2022-10-12T19:32:53.237Z,21.63
2022-10-12T19:35:23.812Z,20.63
2022-10-12T19:37:54.015Z,19.25
2022-10-12T19:42:51.057Z,20.08
2022-10-12T19:45:19.626Z,20.58
2022-10-12T19:47:48.313Z,22.65
2022-10-12T19:50:18.596Z,20.45
2022-10-12T19:52:46.976Z,20.00
2022-10-12T19:55:17.464Z,21.38
2022-10-12T19:57:48.725Z,18.70
2022-10-12T20:00:17.876Z,22.60
2022-10-12T20:02:47.073Z,20.35
2022-10-12T20:05:15.734Z,21.45
2022-10-12T20:07:45.573Z,25.08
2022-10-12T20:10:14.207Z,25.45
2022-10-12T20:12:42.785Z,24.38
2022-10-12T20:15:12.323Z,20.63
2022-10-12T20:17:40.963Z,19.92
2022-10-12T20:20:10.580Z,20.33
2022-10-12T20:22:38.797Z,18.90
2022-10-12T20:25:09.895Z,19.10
2022-10-12T20:27:38.770Z,17.45
2022-10-12T20:30:08.488Z,21.23
2022-10-12T20:32:37.169Z,20.30
2022-10-12T20:35:06.775Z,20.67
2022-10-12T20:37:35.422Z,20.45
2022-10-12T20:40:04.262Z,21.45
2022-10-12T20:42:34.303Z,19.65
2022-10-12T20:45:02.934Z,20.75
2022-10-12T20:47:31.647Z,21.08
2022-10-12T20:50:00.330Z,20.85
2022-10-12T20:52:28.737Z,20.08
2022-10-12T20:54:57.444Z,21.02
2022-10-12T20:57:26.084Z,20.80
2022-10-12T20:59:56.082Z,23.25
2022-10-12T21:02:24.681Z,23.08
2022-10-12T21:04:52.912Z,23.33
2022-10-12T21:07:21.594Z,20.98
2022-10-12T21:09:51.993Z,21.02
2022-10-12T21:14:49.769Z,22.85
2022-10-12T21:17:20.355Z,32.30
2022-10-12T21:19:49.534Z,37.10
2022-10-12T21:22:18.511Z,45.45
2022-10-12T21:24:47.500Z,48.33
2022-10-12T21:27:16.196Z,30.92
2022-10-12T21:29:44.808Z,32.58
2022-10-12T21:32:13.322Z,32.97
2022-10-12T21:34:42.978Z,35.05
2022-10-12T21:37:11.795Z,40.97
2022-10-12T21:39:40.534Z,45.70
2022-10-12T21:42:09.174Z,41.40
2022-10-12T21:44:37.959Z,39.63
2022-10-12T21:47:06.515Z,34.83
2022-10-12T21:49:34.846Z,33.58
2022-10-12T21:52:05.064Z,30.63
2022-10-12T21:54:33.762Z,28.10
2022-10-12T21:57:02.417Z,28.65
2022-10-12T21:59:34.195Z,26.65
2022-10-12T22:02:02.852Z,29.52
2022-10-12T22:04:33.264Z,29.50
2022-10-12T22:07:02.007Z,27.23
2022-10-12T22:09:32.063Z,25.65
2022-10-12T22:12:00.775Z,24.08
2022-10-12T22:14:29.461Z,27.13
2022-10-12T22:16:58.049Z,24.77
2022-10-12T22:19:26.517Z,29.00
2022-10-12T22:21:55.232Z,26.02
2022-10-12T22:24:29.228Z,24.98
2022-10-12T22:26:59.405Z,29.20
2022-10-12T22:29:28.033Z,30.85
2022-10-12T22:31:56.416Z,27.85
2022-10-12T22:34:25.070Z,25.83
2022-10-12T22:36:53.653Z,24.83
2022-10-12T22:39:26.060Z,33.65
2022-10-12T22:41:54.729Z,32.60
2022-10-12T22:44:27.613Z,32.83
2022-10-12T22:46:56.767Z,37.35
2022-10-12T22:49:25.400Z,37.08
2022-10-12T22:51:54.115Z,35.85
2022-10-12T22:54:22.803Z,37.10
2022-10-12T22:56:51.966Z,42.78
2022-10-12T22:59:20.681Z,42.85
2022-10-12T23:01:50.355Z,44.20
2022-10-12T23:04:19.083Z,39.70
2022-10-12T23:06:47.709Z,40.67
2022-10-12T23:09:16.298Z,36.53
2022-10-12T23:11:44.971Z,34.90
2022-10-12T23:14:13.581Z,36.53
2022-10-12T23:16:41.867Z,34.60
2022-10-12T23:19:11.946Z,31.17
2022-10-12T23:21:40.616Z,31.58
2022-10-12T23:24:10.694Z,30.90
2022-10-12T23:26:39.361Z,27.98
2022-10-12T23:29:07.977Z,27.08
2022-10-12T23:31:36.995Z,25.38
2022-10-12T23:34:06.823Z,24.95
2022-10-12T23:36:36.821Z,32.90
2022-10-12T23:39:06.600Z,31.80
2022-10-12T23:41:35.232Z,32.35
2022-10-12T23:44:03.950Z,27.60
2022-10-12T23:46:32.303Z,34.28
2022-10-12T23:49:00.961Z,24.95
2022-10-12T23:51:29.782Z,23.75
2022-10-12T23:53:59.889Z,26.40
2022-10-12T23:56:28.651Z,34.88
2022-10-12T23:58:57.275Z,33.97
